Terminal Aerodrome Forecast
Issued by NWS

Current Version | Previous Version | Text Only | Print | Product List | Glossary On
Versions: 1 2 3 4 5 6 7 8 9 10 11 12 13 14 15
000
FTUS42 KGSP 012330
TAFAND
TAF
KAND 012330Z 0200/0224 35005KT P6SM FEW090 FEW250
     FM020500 06004KT P6SM FEW070
     FM021500 07008KT P6SM FEW070
     FM022200 09009KT P6SM FEW080=

USA.gov is the U.S. government's official web portal to all federal, state and local government web resources and services.